sensor_id;sensor_type;location;lat;lon;timestamp;temperature;humidity
53520;DHT22;39397;53.204;5.778;2023-03-12T00:01:16;2.10;99.90
53520;DHT22;39397;53.204;5.778;2023-03-12T00:03:42;2.00;99.90
53520;DHT22;39397;53.204;5.778;2023-03-12T00:06:11;1.70;99.90
53520;DHT22;39397;53.204;5.778;2023-03-12T00:08:38;1.90;99.90
53520;DHT22;39397;53.204;5.778;2023-03-12T00:11:10;0.10;99.90
53520;DHT22;39397;53.204;5.778;2023-03-12T00:13:36;0.70;99.90
53520;DHT22;39397;53.204;5.778;2023-03-12T00:16:10;1.30;99.90
53520;DHT22;39397;53.204;5.778;2023-03-12T00:18:36;0.50;99.90
53520;DHT22;39397;53.204;5.778;2023-03-12T00:21:03;1.80;99.90
53520;DHT22;39397;53.204;5.778;2023-03-12T00:23:28;0.30;99.90
53520;DHT22;39397;53.204;5.778;2023-03-12T00:26:02;2.40;99.90
53520;DHT22;39397;53.204;5.778;2023-03-12T00:28:29;1.60;99.90
53520;DHT22;39397;53.204;5.778;2023-03-12T00:30:55;1.60;99.90
53520;DHT22;39397;53.204;5.778;2023-03-12T00:33:23;2.40;99.90
53520;DHT22;39397;53.204;5.778;2023-03-12T00:35:49;0.30;99.90
53520;DHT22;39397;53.204;5.778;2023-03-12T00:38:15;0.70;99.90
53520;DHT22;39397;53.204;5.778;2023-03-12T00:40:41;0.50;99.90
53520;DHT22;39397;53.204;5.778;2023-03-12T00:43:07;2.50;99.90
53520;DHT22;39397;53.204;5.778;2023-03-12T00:45:32;2.60;99.90
53520;DHT22;39397;53.204;5.778;2023-03-12T00:47:58;2.30;99.90
53520;DHT22;39397;53.204;5.778;2023-03-12T00:50:24;0.60;99.90
53520;DHT22;39397;53.204;5.778;2023-03-12T00:52:49;1.80;99.90
53520;DHT22;39397;53.204;5.778;2023-03-12T00:55:15;1.50;99.90
53520;DHT22;39397;53.204;5.778;2023-03-12T00:57:41;2.10;99.90
53520;DHT22;39397;53.204;5.778;2023-03-12T01:00:07;1.90;99.90
53520;DHT22;39397;53.204;5.778;2023-03-12T01:02:38;0.50;99.90
53520;DHT22;39397;53.204;5.778;2023-03-12T01:05:09;1.00;99.90
53520;DHT22;39397;53.204;5.778;2023-03-12T01:07:35;0.50;99.90
53520;DHT22;39397;53.204;5.778;2023-03-12T01:10:01;2.20;99.90
53520;DHT22;39397;53.204;5.778;2023-03-12T01:12:27;0.80;99.90
53520;DHT22;39397;53.204;5.778;2023-03-12T01:14:53;2.30;99.90
53520;DHT22;39397;53.204;5.778;2023-03-12T01:17:20;0.70;99.90
53520;DHT22;39397;53.204;5.778;2023-03-12T01:19:45;0.60;99.90
53520;DHT22;39397;53.204;5.778;2023-03-12T01:22:11;1.30;99.90
53520;DHT22;39397;53.204;5.778;2023-03-12T01:24:37;2.20;99.90
53520;DHT22;39397;53.204;5.778;2023-03-12T01:27:03;0.70;99.90
53520;DHT22;39397;53.204;5.778;2023-03-12T01:29:28;0.90;99.90
53520;DHT22;39397;53.204;5.778;2023-03-12T01:31:54;2.30;99.90
53520;DHT22;39397;53.204;5.778;2023-03-12T01:34:20;1.00;99.90
53520;DHT22;39397;53.204;5.778;2023-03-12T01:36:45;1.20;99.90
53520;DHT22;39397;53.204;5.778;2023-03-12T01:39:12;2.80;99.90
53520;DHT22;39397;53.204;5.778;2023-03-12T01:41:38;2.70;99.90
53520;DHT22;39397;53.204;5.778;2023-03-12T01:44:05;3.00;99.90
53520;DHT22;39397;53.204;5.778;2023-03-12T01:46:34;2.50;99.90
53520;DHT22;39397;53.204;5.778;2023-03-12T01:49:25;3.20;99.90
53520;DHT22;39397;53.204;5.778;2023-03-12T01:52:06;1.10;99.90
53520;DHT22;39397;53.204;5.778;2023-03-12T01:55:07;2.10;99.90
53520;DHT22;39397;53.204;5.778;2023-03-12T01:57:55;1.10;99.90
53520;DHT22;39397;53.204;5.778;2023-03-12T02:00:26;3.30;99.90
53520;DHT22;39397;53.204;5.778;2023-03-12T02:02:55;2.20;99.90
53520;DHT22;39397;53.204;5.778;2023-03-12T02:05:35;2.90;99.90
53520;DHT22;39397;53.204;5.778;2023-03-12T02:08:05;1.50;99.90
53520;DHT22;39397;53.204;5.778;2023-03-12T02:10:31;2.10;99.90
53520;DHT22;39397;53.204;5.778;2023-03-12T02:12:57;3.40;99.90
53520;DHT22;39397;53.204;5.778;2023-03-12T02:15:22;3.30;99.90
53520;DHT22;39397;53.204;5.778;2023-03-12T02:17:48;3.20;99.90
53520;DHT22;39397;53.204;5.778;2023-03-12T02:23:05;1.60;99.90
53520;DHT22;39397;53.204;5.778;2023-03-12T02:25:41;1.50;99.90
53520;DHT22;39397;53.204;5.778;2023-03-12T02:28:14;3.30;99.90
53520;DHT22;39397;53.204;5.778;2023-03-12T02:30:45;1.70;99.90
53520;DHT22;39397;53.204;5.778;2023-03-12T02:33:11;1.50;99.90
53520;DHT22;39397;53.204;5.778;2023-03-12T02:35:39;3.40;99.90
53520;DHT22;39397;53.204;5.778;2023-03-12T02:40:54;1.60;99.90
53520;DHT22;39397;53.204;5.778;2023-03-12T02:43:23;1.70;99.90
53520;DHT22;39397;53.204;5.778;2023-03-12T02:45:49;3.50;99.90
53520;DHT22;39397;53.204;5.778;2023-03-12T02:48:21;1.60;99.90
53520;DHT22;39397;53.204;5.778;2023-03-12T02:50:47;2.80;99.90
53520;DHT22;39397;53.204;5.778;2023-03-12T02:53:13;3.00;99.90
53520;DHT22;39397;53.204;5.778;2023-03-12T02:55:38;1.70;99.90
53520;DHT22;39397;53.204;5.778;2023-03-12T02:58:04;3.10;99.90
53520;DHT22;39397;53.204;5.778;2023-03-12T03:00:30;3.80;99.90
53520;DHT22;39397;53.204;5.778;2023-03-12T03:03:00;3.20;99.90
53520;DHT22;39397;53.204;5.778;2023-03-12T03:05:26;3.80;99.90
53520;DHT22;39397;53.204;5.778;2023-03-12T03:07:52;3.20;99.90
53520;DHT22;39397;53.204;5.778;2023-03-12T03:10:20;3.10;99.90
53520;DHT22;39397;53.204;5.778;2023-03-12T03:12:46;2.80;99.90
53520;DHT22;39397;53.204;5.778;2023-03-12T03:15:12;1.70;99.90
53520;DHT22;39397;53.204;5.778;2023-03-12T03:17:37;1.90;99.90
53520;DHT22;39397;53.204;5.778;2023-03-12T03:20:04;1.90;99.90
53520;DHT22;39397;53.204;5.778;2023-03-12T03:22:35;1.70;99.90
53520;DHT22;39397;53.204;5.778;2023-03-12T03:25:02;2.80;99.90
53520;DHT22;39397;53.204;5.778;2023-03-12T03:27:28;1.70;99.90
53520;DHT22;39397;53.204;5.778;2023-03-12T03:29:53;1.70;99.90
53520;DHT22;39397;53.204;5.778;2023-03-12T03:32:19;1.80;99.90
53520;DHT22;39397;53.204;5.778;2023-03-12T03:34:45;3.60;99.90
53520;DHT22;39397;53.204;5.778;2023-03-12T03:37:10;1.90;99.90
53520;DHT22;39397;53.204;5.778;2023-03-12T03:39:36;1.80;99.90
53520;DHT22;39397;53.204;5.778;2023-03-12T03:42:02;3.00;99.90
53520;DHT22;39397;53.204;5.778;2023-03-12T03:44:28;1.80;99.90
53520;DHT22;39397;53.204;5.778;2023-03-12T03:46:55;1.80;99.90
53520;DHT22;39397;53.204;5.778;2023-03-12T03:49:21;1.80;99.90
53520;DHT22;39397;53.204;5.778;2023-03-12T03:51:46;1.80;99.90
53520;DHT22;39397;53.204;5.778;2023-03-12T03:54:12;3.50;99.90
53520;DHT22;39397;53.204;5.778;2023-03-12T03:56:39;2.40;99.90
53520;DHT22;39397;53.204;5.778;2023-03-12T03:59:05;3.20;99.90
53520;DHT22;39397;53.204;5.778;2023-03-12T04:01:31;1.80;99.90
53520;DHT22;39397;53.204;5.778;2023-03-12T04:03:58;1.90;99.90
53520;DHT22;39397;53.204;5.778;2023-03-12T04:06:24;2.50;99.90
53520;DHT22;39397;53.204;5.778;2023-03-12T04:08:50;3.80;99.90
53520;DHT22;39397;53.204;5.778;2023-03-12T04:11:20;3.60;99.90
53520;DHT22;39397;53.204;5.778;2023-03-12T04:13:47;1.90;99.90
53520;DHT22;39397;53.204;5.778;2023-03-12T04:16:13;2.10;99.90
53520;DHT22;39397;53.204;5.778;2023-03-12T04:18:39;3.60;99.90
53520;DHT22;39397;53.204;5.778;2023-03-12T04:21:06;3.60;99.90
53520;DHT22;39397;53.204;5.778;2023-03-12T04:23:33;1.80;99.90
53520;DHT22;39397;53.204;5.778;2023-03-12T04:25:58;2.20;99.90
53520;DHT22;39397;53.204;5.778;2023-03-12T04:28:24;2.50;99.90
53520;DHT22;39397;53.204;5.778;2023-03-12T04:30:58;2.00;99.90
53520;DHT22;39397;53.204;5.778;2023-03-12T04:33:29;3.20;99.90
53520;DHT22;39397;53.204;5.778;2023-03-12T04:35:55;2.00;99.90
53520;DHT22;39397;53.204;5.778;2023-03-12T04:38:22;1.90;99.90
53520;DHT22;39397;53.204;5.778;2023-03-12T04:41:06;2.30;99.90
53520;DHT22;39397;53.204;5.778;2023-03-12T04:43:32;1.80;99.90
53520;DHT22;39397;53.204;5.778;2023-03-12T04:45:59;3.50;99.90
53520;DHT22;39397;53.204;5.778;2023-03-12T04:48:25;3.50;99.90
53520;DHT22;39397;53.204;5.778;2023-03-12T04:50:51;3.20;99.90
53520;DHT22;39397;53.204;5.778;2023-03-12T04:53:17;2.00;99.90
53520;DHT22;39397;53.204;5.778;2023-03-12T04:55:43;3.60;99.90
53520;DHT22;39397;53.204;5.778;2023-03-12T04:58:09;1.80;99.90
53520;DHT22;39397;53.204;5.778;2023-03-12T05:00:35;2.10;99.90
53520;DHT22;39397;53.204;5.778;2023-03-12T05:03:01;3.40;99.90
53520;DHT22;39397;53.204;5.778;2023-03-12T05:05:27;3.20;99.90
53520;DHT22;39397;53.204;5.778;2023-03-12T05:07:53;2.20;99.90
53520;DHT22;39397;53.204;5.778;2023-03-12T05:10:18;3.80;99.90
53520;DHT22;39397;53.204;5.778;2023-03-12T05:12:44;3.70;99.90
53520;DHT22;39397;53.204;5.778;2023-03-12T05:15:10;3.20;99.90
53520;DHT22;39397;53.204;5.778;2023-03-12T05:17:36;1.70;99.90
53520;DHT22;39397;53.204;5.778;2023-03-12T05:20:02;3.50;99.90
53520;DHT22;39397;53.204;5.778;2023-03-12T05:22:30;1.80;99.90
53520;DHT22;39397;53.204;5.778;2023-03-12T05:24:56;2.90;99.90
53520;DHT22;39397;53.204;5.778;2023-03-12T05:27:21;3.90;99.90
53520;DHT22;39397;53.204;5.778;2023-03-12T05:29:51;3.70;99.90
53520;DHT22;39397;53.204;5.778;2023-03-12T05:32:16;3.40;99.90
53520;DHT22;39397;53.204;5.778;2023-03-12T05:34:42;1.90;99.90
53520;DHT22;39397;53.204;5.778;2023-03-12T05:37:08;4.10;99.90
53520;DHT22;39397;53.204;5.778;2023-03-12T05:39:34;3.50;99.90
53520;DHT22;39397;53.204;5.778;2023-03-12T05:41:59;2.10;99.90
53520;DHT22;39397;53.204;5.778;2023-03-12T05:44:25;2.90;99.90
53520;DHT22;39397;53.204;5.778;2023-03-12T05:46:52;3.60;99.90
53520;DHT22;39397;53.204;5.778;2023-03-12T05:49:20;3.10;99.90
53520;DHT22;39397;53.204;5.778;2023-03-12T05:51:47;3.80;99.90
53520;DHT22;39397;53.204;5.778;2023-03-12T05:54:14;2.90;99.90
53520;DHT22;39397;53.204;5.778;2023-03-12T05:56:39;2.10;99.90
53520;DHT22;39397;53.204;5.778;2023-03-12T05:59:05;2.10;99.90
53520;DHT22;39397;53.204;5.778;2023-03-12T06:01:32;2.50;99.90
53520;DHT22;39397;53.204;5.778;2023-03-12T06:03:58;2.10;99.90
53520;DHT22;39397;53.204;5.778;2023-03-12T06:06:24;2.60;99.90
53520;DHT22;39397;53.204;5.778;2023-03-12T06:08:50;2.20;99.90
53520;DHT22;39397;53.204;5.778;2023-03-12T06:11:16;3.30;99.90
53520;DHT22;39397;53.204;5.778;2023-03-12T06:13:42;4.00;99.90
53520;DHT22;39397;53.204;5.778;2023-03-12T06:16:16;3.70;99.90
53520;DHT22;39397;53.204;5.778;2023-03-12T06:18:42;3.30;99.90
53520;DHT22;39397;53.204;5.778;2023-03-12T06:21:12;2.30;99.90
53520;DHT22;39397;53.204;5.778;2023-03-12T06:23:38;2.20;99.90
53520;DHT22;39397;53.204;5.778;2023-03-12T06:26:05;4.00;99.90
53520;DHT22;39397;53.204;5.778;2023-03-12T06:28:31;2.20;99.90
53520;DHT22;39397;53.204;5.778;2023-03-12T06:30:57;4.20;99.90
53520;DHT22;39397;53.204;5.778;2023-03-12T06:33:23;3.80;99.90
53520;DHT22;39397;53.204;5.778;2023-03-12T06:35:52;3.60;99.90
53520;DHT22;39397;53.204;5.778;2023-03-12T06:38:18;4.00;99.90
53520;DHT22;39397;53.204;5.778;2023-03-12T06:40:54;2.30;99.90
53520;DHT22;39397;53.204;5.778;2023-03-12T06:43:20;3.40;99.90
53520;DHT22;39397;53.204;5.778;2023-03-12T06:45:46;3.70;99.90
53520;DHT22;39397;53.204;5.778;2023-03-12T06:48:11;3.30;99.90
53520;DHT22;39397;53.204;5.778;2023-03-12T06:50:37;3.30;99.90
53520;DHT22;39397;53.204;5.778;2023-03-12T06:53:03;2.80;99.90
53520;DHT22;39397;53.204;5.778;2023-03-12T06:55:28;3.40;99.90
53520;DHT22;39397;53.204;5.778;2023-03-12T06:57:54;3.70;99.90
53520;DHT22;39397;53.204;5.778;2023-03-12T07:00:20;2.20;99.90
53520;DHT22;39397;53.204;5.778;2023-03-12T07:02:46;2.20;99.90
53520;DHT22;39397;53.204;5.778;2023-03-12T07:05:11;2.60;99.90
53520;DHT22;39397;53.204;5.778;2023-03-12T07:07:37;3.20;99.90
53520;DHT22;39397;53.204;5.778;2023-03-12T07:10:04;3.90;99.90
53520;DHT22;39397;53.204;5.778;2023-03-12T07:12:31;2.10;99.90
53520;DHT22;39397;53.204;5.778;2023-03-12T07:14:57;3.60;99.90
53520;DHT22;39397;53.204;5.778;2023-03-12T07:17:23;4.00;99.90
53520;DHT22;39397;53.204;5.778;2023-03-12T07:19:53;3.70;99.90
53520;DHT22;39397;53.204;5.778;2023-03-12T07:22:19;1.90;99.90
53520;DHT22;39397;53.204;5.778;2023-03-12T07:24:44;2.90;99.90
53520;DHT22;39397;53.204;5.778;2023-03-12T07:27:10;2.00;99.90
53520;DHT22;39397;53.204;5.778;2023-03-12T07:29:36;3.10;99.90
53520;DHT22;39397;53.204;5.778;2023-03-12T07:32:01;3.70;99.90
53520;DHT22;39397;53.204;5.778;2023-03-12T07:34:27;2.00;99.90
53520;DHT22;39397;53.204;5.778;2023-03-12T07:36:53;4.00;99.90
53520;DHT22;39397;53.204;5.778;2023-03-12T07:39:19;2.00;99.90
53520;DHT22;39397;53.204;5.778;2023-03-12T07:41:45;3.60;99.90
53520;DHT22;39397;53.204;5.778;2023-03-12T07:44:10;2.70;99.90
53520;DHT22;39397;53.204;5.778;2023-03-12T07:46:36;2.00;99.90
53520;DHT22;39397;53.204;5.778;2023-03-12T07:49:02;3.80;99.90
53520;DHT22;39397;53.204;5.778;2023-03-12T07:51:28;3.00;99.90
53520;DHT22;39397;53.204;5.778;2023-03-12T07:53:54;2.00;99.90
53520;DHT22;39397;53.204;5.778;2023-03-12T07:56:20;2.10;99.90
53520;DHT22;39397;53.204;5.778;2023-03-12T07:58:46;2.10;99.90
53520;DHT22;39397;53.204;5.778;2023-03-12T08:01:11;2.20;99.90
53520;DHT22;39397;53.204;5.778;2023-03-12T08:03:37;2.70;99.90
53520;DHT22;39397;53.204;5.778;2023-03-12T08:06:04;3.70;99.90
53520;DHT22;39397;53.204;5.778;2023-03-12T08:08:31;1.90;99.90
53520;DHT22;39397;53.204;5.778;2023-03-12T08:10:58;3.30;99.90
53520;DHT22;39397;53.204;5.778;2023-03-12T08:13:24;3.40;99.90
53520;DHT22;39397;53.204;5.778;2023-03-12T08:15:51;2.30;99.90
53520;DHT22;39397;53.204;5.778;2023-03-12T08:18:18;4.10;99.90
53520;DHT22;39397;53.204;5.778;2023-03-12T08:20:43;2.10;99.90
53520;DHT22;39397;53.204;5.778;2023-03-12T08:23:10;2.30;99.90
53520;DHT22;39397;53.204;5.778;2023-03-12T08:25:35;3.90;99.90
53520;DHT22;39397;53.204;5.778;2023-03-12T08:28:04;2.20;99.90
53520;DHT22;39397;53.204;5.778;2023-03-12T08:30:30;2.20;99.90
53520;DHT22;39397;53.204;5.778;2023-03-12T08:32:56;3.40;99.90
53520;DHT22;39397;53.204;5.778;2023-03-12T08:35:22;2.40;99.90
53520;DHT22;39397;53.204;5.778;2023-03-12T08:37:48;4.00;99.90
53520;DHT22;39397;53.204;5.778;2023-03-12T08:40:14;2.20;99.90
53520;DHT22;39397;53.204;5.778;2023-03-12T08:42:41;2.20;99.90
53520;DHT22;39397;53.204;5.778;2023-03-12T08:45:08;2.70;99.90
53520;DHT22;39397;53.204;5.778;2023-03-12T08:47:34;2.30;99.90
53520;DHT22;39397;53.204;5.778;2023-03-12T08:50:00;2.30;99.90
53520;DHT22;39397;53.204;5.778;2023-03-12T08:52:27;2.40;99.90
53520;DHT22;39397;53.204;5.778;2023-03-12T08:54:52;2.30;99.90
53520;DHT22;39397;53.204;5.778;2023-03-12T08:57:18;3.00;99.90
53520;DHT22;39397;53.204;5.778;2023-03-12T08:59:45;3.40;99.90
53520;DHT22;39397;53.204;5.778;2023-03-12T09:02:11;2.70;99.90
53520;DHT22;39397;53.204;5.778;2023-03-12T09:04:37;4.50;99.90
53520;DHT22;39397;53.204;5.778;2023-03-12T09:07:03;3.80;99.90
53520;DHT22;39397;53.204;5.778;2023-03-12T09:09:29;3.50;99.90
53520;DHT22;39397;53.204;5.778;2023-03-12T09:11:57;2.40;99.90
53520;DHT22;39397;53.204;5.778;2023-03-12T09:14:25;2.40;99.90
53520;DHT22;39397;53.204;5.778;2023-03-12T09:16:50;2.70;99.90
53520;DHT22;39397;53.204;5.778;2023-03-12T09:19:16;2.60;99.90
53520;DHT22;39397;53.204;5.778;2023-03-12T09:21:42;4.20;99.90
53520;DHT22;39397;53.204;5.778;2023-03-12T09:24:09;2.70;99.90
53520;DHT22;39397;53.204;5.778;2023-03-12T09:26:37;4.80;99.90
53520;DHT22;39397;53.204;5.778;2023-03-12T09:29:02;3.20;99.90
53520;DHT22;39397;53.204;5.778;2023-03-12T09:31:28;2.80;99.90
53520;DHT22;39397;53.204;5.778;2023-03-12T09:33:54;4.60;99.90
53520;DHT22;39397;53.204;5.778;2023-03-12T09:36:19;4.50;99.90
53520;DHT22;39397;53.204;5.778;2023-03-12T09:38:45;3.40;99.90
53520;DHT22;39397;53.204;5.778;2023-03-12T09:41:25;3.00;99.90
53520;DHT22;39397;53.204;5.778;2023-03-12T09:46:52;2.90;99.90
53520;DHT22;39397;53.204;5.778;2023-03-12T09:49:31;2.90;99.90
53520;DHT22;39397;53.204;5.778;2023-03-12T09:52:00;3.10;99.90
53520;DHT22;39397;53.204;5.778;2023-03-12T09:54:42;4.80;99.90
53520;DHT22;39397;53.204;5.778;2023-03-12T09:57:17;4.20;99.90
53520;DHT22;39397;53.204;5.778;2023-03-12T09:59:45;5.30;99.90
53520;DHT22;39397;53.204;5.778;2023-03-12T10:05:03;5.30;99.90
53520;DHT22;39397;53.204;5.778;2023-03-12T10:08:00;3.50;99.90
53520;DHT22;39397;53.204;5.778;2023-03-12T10:16:14;4.40;99.90
53520;DHT22;39397;53.204;5.778;2023-03-12T10:21:31;3.60;99.90
53520;DHT22;39397;53.204;5.778;2023-03-12T10:24:26;3.60;99.90
53520;DHT22;39397;53.204;5.778;2023-03-12T10:26:57;3.60;99.90
53520;DHT22;39397;53.204;5.778;2023-03-12T10:29:31;4.00;99.90
53520;DHT22;39397;53.204;5.778;2023-03-12T10:34:46;2.10;99.90
53520;DHT22;39397;53.204;5.778;2023-03-12T10:40:27;3.70;99.90
53520;DHT22;39397;53.204;5.778;2023-03-12T10:42:56;3.90;99.90
53520;DHT22;39397;53.204;5.778;2023-03-12T10:47:54;5.60;99.90
53520;DHT22;39397;53.204;5.778;2023-03-12T10:50:24;4.10;99.90
53520;DHT22;39397;53.204;5.778;2023-03-12T10:55:43;4.20;99.90
53520;DHT22;39397;53.204;5.778;2023-03-12T10:58:23;4.90;99.90
53520;DHT22;39397;53.204;5.778;2023-03-12T11:00:57;6.40;99.90
53520;DHT22;39397;53.204;5.778;2023-03-12T11:03:23;6.10;99.90
53520;DHT22;39397;53.204;5.778;2023-03-12T11:05:52;6.00;99.90
53520;DHT22;39397;53.204;5.778;2023-03-12T11:08:24;6.00;99.90
53520;DHT22;39397;53.204;5.778;2023-03-12T11:10:52;4.90;99.90
53520;DHT22;39397;53.204;5.778;2023-03-12T11:13:36;4.90;99.90
53520;DHT22;39397;53.204;5.778;2023-03-12T11:16:24;5.00;99.90
53520;DHT22;39397;53.204;5.778;2023-03-12T11:19:01;5.30;99.90
53520;DHT22;39397;53.204;5.778;2023-03-12T11:21:29;5.30;99.90
53520;DHT22;39397;53.204;5.778;2023-03-12T11:26:34;6.90;99.90
53520;DHT22;39397;53.204;5.778;2023-03-12T11:29:33;7.50;99.90
53520;DHT22;39397;53.204;5.778;2023-03-12T11:32:37;5.90;99.90
53520;DHT22;39397;53.204;5.778;2023-03-12T11:35:13;6.00;99.90
53520;DHT22;39397;53.204;5.778;2023-03-12T11:40:43;8.40;99.90
53520;DHT22;39397;53.204;5.778;2023-03-12T11:46:32;6.20;99.90
53520;DHT22;39397;53.204;5.778;2023-03-12T11:52:02;6.40;99.90
53520;DHT22;39397;53.204;5.778;2023-03-12T12:03:49;7.00;99.90
53520;DHT22;39397;53.204;5.778;2023-03-12T12:06:10;7.20;99.90
53520;DHT22;39397;53.204;5.778;2023-03-12T12:09:17;7.70;99.90
53520;DHT22;39397;53.204;5.778;2023-03-12T12:14:27;8.00;99.90
53520;DHT22;39397;53.204;5.778;2023-03-12T12:17:01;8.10;99.90
53520;DHT22;39397;53.204;5.778;2023-03-12T12:27:32;8.80;99.90
53520;DHT22;39397;53.204;5.778;2023-03-12T12:30:17;9.10;99.90
53520;DHT22;39397;53.204;5.778;2023-03-12T12:35:37;9.20;99.90
53520;DHT22;39397;53.204;5.778;2023-03-12T12:38:23;9.40;99.90
53520;DHT22;39397;53.204;5.778;2023-03-12T12:41:02;9.70;99.90
53520;DHT22;39397;53.204;5.778;2023-03-12T12:43:39;9.70;99.90
53520;DHT22;39397;53.204;5.778;2023-03-12T12:46:16;9.80;99.90
53520;DHT22;39397;53.204;5.778;2023-03-12T12:48:51;9.80;99.90
53520;DHT22;39397;53.204;5.778;2023-03-12T12:51:22;9.60;99.90
53520;DHT22;39397;53.204;5.778;2023-03-12T12:56:38;9.80;99.90
53520;DHT22;39397;53.204;5.778;2023-03-12T13:02:27;10.00;99.90
53520;DHT22;39397;53.204;5.778;2023-03-12T13:05:02;12.00;99.90
53520;DHT22;39397;53.204;5.778;2023-03-12T13:07:36;10.20;99.90
53520;DHT22;39397;53.204;5.778;2023-03-12T13:10:37;10.10;99.90
53520;DHT22;39397;53.204;5.778;2023-03-12T13:13:20;10.00;99.90
53520;DHT22;39397;53.204;5.778;2023-03-12T13:15:48;10.40;99.90
53520;DHT22;39397;53.204;5.778;2023-03-12T13:23:36;10.00;99.90
53520;DHT22;39397;53.204;5.778;2023-03-12T13:26:22;9.90;99.90
53520;DHT22;39397;53.204;5.778;2023-03-12T13:31:54;9.80;99.90
53520;DHT22;39397;53.204;5.778;2023-03-12T13:36:49;9.80;99.90
53520;DHT22;39397;53.204;5.778;2023-03-12T13:49:20;10.20;99.90
53520;DHT22;39397;53.204;5.778;2023-03-12T13:51:54;10.30;99.90
53520;DHT22;39397;53.204;5.778;2023-03-12T13:54:24;10.20;99.90
53520;DHT22;39397;53.204;5.778;2023-03-12T13:57:02;10.30;99.90
53520;DHT22;39397;53.204;5.778;2023-03-12T13:59:31;10.20;99.90
53520;DHT22;39397;53.204;5.778;2023-03-12T14:02:00;10.40;99.90
53520;DHT22;39397;53.204;5.778;2023-03-12T14:04:34;10.40;99.90
53520;DHT22;39397;53.204;5.778;2023-03-12T14:18:16;10.40;99.90
53520;DHT22;39397;53.204;5.778;2023-03-12T14:20:53;10.40;99.90
53520;DHT22;39397;53.204;5.778;2023-03-12T14:23:24;10.30;99.90
53520;DHT22;39397;53.204;5.778;2023-03-12T14:25:58;10.30;99.90
53520;DHT22;39397;53.204;5.778;2023-03-12T14:28:26;10.20;99.90
53520;DHT22;39397;53.204;5.778;2023-03-12T14:31:15;10.20;99.90
53520;DHT22;39397;53.204;5.778;2023-03-12T14:34:26;10.20;99.90
53520;DHT22;39397;53.204;5.778;2023-03-12T14:39:34;10.20;99.90
53520;DHT22;39397;53.204;5.778;2023-03-12T14:42:05;10.30;99.90
53520;DHT22;39397;53.204;5.778;2023-03-12T14:44:34;10.40;99.90
53520;DHT22;39397;53.204;5.778;2023-03-12T14:47:07;10.30;99.90
53520;DHT22;39397;53.204;5.778;2023-03-12T14:49:40;10.50;99.90
53520;DHT22;39397;53.204;5.778;2023-03-12T14:52:06;10.50;99.90
53520;DHT22;39397;53.204;5.778;2023-03-12T14:54:32;10.50;99.90
53520;DHT22;39397;53.204;5.778;2023-03-12T14:56:58;10.50;99.90
53520;DHT22;39397;53.204;5.778;2023-03-12T15:01:49;10.80;99.90
53520;DHT22;39397;53.204;5.778;2023-03-12T15:04:21;10.70;99.90
53520;DHT22;39397;53.204;5.778;2023-03-12T15:06:53;10.60;99.90
53520;DHT22;39397;53.204;5.778;2023-03-12T15:09:26;10.60;99.90
53520;DHT22;39397;53.204;5.778;2023-03-12T15:12:16;10.60;99.90
53520;DHT22;39397;53.204;5.778;2023-03-12T15:14:46;10.90;99.90
53520;DHT22;39397;53.204;5.778;2023-03-12T15:17:17;10.40;99.90
53520;DHT22;39397;53.204;5.778;2023-03-12T15:19:52;10.40;99.90
53520;DHT22;39397;53.204;5.778;2023-03-12T15:22:25;10.30;99.90
53520;DHT22;39397;53.204;5.778;2023-03-12T15:24:54;8.80;99.90
53520;DHT22;39397;53.204;5.778;2023-03-12T15:29:57;10.30;99.90
53520;DHT22;39397;53.204;5.778;2023-03-12T15:32:24;10.50;99.90
53520;DHT22;39397;53.204;5.778;2023-03-12T15:34:51;10.20;99.90
53520;DHT22;39397;53.204;5.778;2023-03-12T15:37:31;10.30;99.90
53520;DHT22;39397;53.204;5.778;2023-03-12T15:40:47;10.10;99.90
53520;DHT22;39397;53.204;5.778;2023-03-12T15:44:05;9.90;99.90
53520;DHT22;39397;53.204;5.778;2023-03-12T15:47:08;10.10;99.90
53520;DHT22;39397;53.204;5.778;2023-03-12T15:56:23;9.20;99.90
53520;DHT22;39397;53.204;5.778;2023-03-12T15:59:24;9.40;99.90
53520;DHT22;39397;53.204;5.778;2023-03-12T16:02:01;9.50;99.90
53520;DHT22;39397;53.204;5.778;2023-03-12T16:04:26;7.60;99.90
53520;DHT22;39397;53.204;5.778;2023-03-12T16:07:26;9.20;99.90
53520;DHT22;39397;53.204;5.778;2023-03-12T16:11:03;9.40;99.90
53520;DHT22;39397;53.204;5.778;2023-03-12T16:13:31;9.40;99.90
53520;DHT22;39397;53.204;5.778;2023-03-12T16:15:59;9.20;99.90
53520;DHT22;39397;53.204;5.778;2023-03-12T16:18:42;9.10;99.90
53520;DHT22;39397;53.204;5.778;2023-03-12T16:21:14;9.20;99.90
53520;DHT22;39397;53.204;5.778;2023-03-12T16:23:51;9.10;99.90
53520;DHT22;39397;53.204;5.778;2023-03-12T16:26:20;7.00;99.90
53520;DHT22;39397;53.204;5.778;2023-03-12T16:28:50;9.20;99.90
53520;DHT22;39397;53.204;5.778;2023-03-12T16:31:16;8.90;99.90
53520;DHT22;39397;53.204;5.778;2023-03-12T16:33:52;9.00;99.90
53520;DHT22;39397;53.204;5.778;2023-03-12T16:37:02;9.10;99.90
53520;DHT22;39397;53.204;5.778;2023-03-12T16:40:36;8.70;99.90
53520;DHT22;39397;53.204;5.778;2023-03-12T16:43:57;8.80;99.90
53520;DHT22;39397;53.204;5.778;2023-03-12T16:47:16;8.60;99.90
53520;DHT22;39397;53.204;5.778;2023-03-12T16:49:51;8.60;99.90
53520;DHT22;39397;53.204;5.778;2023-03-12T16:56:34;8.70;99.90
53520;DHT22;39397;53.204;5.778;2023-03-12T16:59:48;8.60;99.90
53520;DHT22;39397;53.204;5.778;2023-03-12T17:02:54;8.60;99.90
53520;DHT22;39397;53.204;5.778;2023-03-12T17:09:15;8.40;99.90
53520;DHT22;39397;53.204;5.778;2023-03-12T17:16:20;8.50;99.90
53520;DHT22;39397;53.204;5.778;2023-03-12T17:19:33;8.30;99.90
53520;DHT22;39397;53.204;5.778;2023-03-12T17:23:24;8.30;99.90
53520;DHT22;39397;53.204;5.778;2023-03-12T17:26:59;8.10;99.90
53520;DHT22;39397;53.204;5.778;2023-03-12T17:33:24;7.90;99.90
53520;DHT22;39397;53.204;5.778;2023-03-12T17:36:19;8.00;99.90
53520;DHT22;39397;53.204;5.778;2023-03-12T17:38:45;7.90;99.90
53520;DHT22;39397;53.204;5.778;2023-03-12T17:41:11;9.30;99.90
53520;DHT22;39397;53.204;5.778;2023-03-12T17:43:37;8.00;99.90
53520;DHT22;39397;53.204;5.778;2023-03-12T17:46:07;8.00;99.90
53520;DHT22;39397;53.204;5.778;2023-03-12T17:48:33;8.00;99.90
53520;DHT22;39397;53.204;5.778;2023-03-12T17:51:07;8.70;99.90
53520;DHT22;39397;53.204;5.778;2023-03-12T17:53:35;8.00;99.90
53520;DHT22;39397;53.204;5.778;2023-03-12T17:56:01;8.10;99.90
53520;DHT22;39397;53.204;5.778;2023-03-12T17:58:27;8.00;99.90
53520;DHT22;39397;53.204;5.778;2023-03-12T18:00:52;8.50;99.90
53520;DHT22;39397;53.204;5.778;2023-03-12T18:03:18;7.90;99.90
53520;DHT22;39397;53.204;5.778;2023-03-12T18:06:02;8.00;99.90
53520;DHT22;39397;53.204;5.778;2023-03-12T18:09:05;7.90;99.90
53520;DHT22;39397;53.204;5.778;2023-03-12T18:12:23;6.30;99.90
53520;DHT22;39397;53.204;5.778;2023-03-12T18:15:54;7.60;99.90
53520;DHT22;39397;53.204;5.778;2023-03-12T18:19:21;7.90;99.90
53520;DHT22;39397;53.204;5.778;2023-03-12T18:26:27;8.00;99.90
53520;DHT22;39397;53.204;5.778;2023-03-12T18:28:53;7.80;99.90
53520;DHT22;39397;53.204;5.778;2023-03-12T18:31:22;8.60;99.90
53520;DHT22;39397;53.204;5.778;2023-03-12T18:33:55;8.00;99.90